Time;durP1;ratioP1;P1;durP2;ratioP2;P2;SDS_P1;SDS_P2;PMS_P1;PMS_P2;Temp;Humidity;BMP_temperature;BMP_pressure;BME280_temperature;BME280_humidity;BME280_pressure;Samples;Min_cycle;Max_cycle;Signal;HPM_P1;HPM_P2
2022/07/17 00:01:28;;;;;;;2.80;2.05;;;;;;;;;;12645558;28;20480;-79
2022/07/17 00:07:30;;;;;;;2.50;2.10;;;;;;;;;;12613595;28;20361;-75
2022/07/17 00:13:32;;;;;;;2.20;1.88;;;;;;;;;;12629148;28;20403;-76
2022/07/17 00:19:33;;;;;;;2.25;2.15;;;;;;;;;;12627472;28;20032;-76
2022/07/17 00:25:35;;;;;;;3.33;2.30;;;;;;;;;;12627721;28;20040;-75
2022/07/17 00:31:37;;;;;;;2.00;1.90;;;;;;;;;;12612604;28;20380;-79
2022/07/17 00:37:40;;;;;;;2.80;2.20;;;;;;;;;;12632906;28;20028;-75
2022/07/17 00:43:42;;;;;;;2.78;2.50;;;;;;;;;;12646111;28;20078;-79
2022/07/17 00:49:44;;;;;;;2.83;2.60;;;;;;;;;;12644293;28;20044;-80
2022/07/17 00:55:47;;;;;;;3.17;2.58;;;;;;;;;;12645562;28;20039;-76
2022/07/17 01:01:49;;;;;;;2.60;2.40;;;;;;;;;;12627069;28;20040;-76
2022/07/17 01:07:52;;;;;;;2.40;2.00;;;;;;;;;;12646206;28;20059;-80
2022/07/17 01:13:53;;;;;;;2.78;2.58;;;;;;;;;;12643999;28;20031;-79
2022/07/17 01:19:55;;;;;;;3.15;2.85;;;;;;;;;;12631134;28;20043;-79
2022/07/17 01:25:57;;;;;;;3.30;3.00;;;;;;;;;;12639713;28;20047;-76
2022/07/17 01:31:59;;;;;;;3.47;3.17;;;;;;;;;;12652603;28;20024;-79
2022/07/17 01:38:01;;;;;;;2.85;2.65;;;;;;;;;;12618821;28;20100;-76
2022/07/17 01:44:03;;;;;;;2.85;2.65;;;;;;;;;;12634693;28;20059;-75
2022/07/17 01:50:05;;;;;;;3.63;2.90;;;;;;;;;;12652514;28;20039;-79
2022/07/17 01:56:07;;;;;;;2.22;2.13;;;;;;;;;;12635959;28;20039;-75
2022/07/17 02:02:10;;;;;;;3.50;3.30;;;;;;;;;;12652465;28;20286;-76
2022/07/17 02:08:12;;;;;;;2.88;2.58;;;;;;;;;;12651662;28;20048;-75
2022/07/17 02:14:14;;;;;;;3.47;3.15;;;;;;;;;;12650363;28;20046;-76
2022/07/17 02:20:16;;;;;;;3.28;2.65;;;;;;;;;;12634180;28;20036;-76
2022/07/17 02:26:18;;;;;;;3.60;3.30;;;;;;;;;;12653233;28;20044;-80
2022/07/17 02:32:19;;;;;;;2.63;2.42;;;;;;;;;;12618278;28;20043;-79
2022/07/17 02:38:21;;;;;;;2.40;2.22;;;;;;;;;;12633704;28;20476;-80
2022/07/17 02:44:23;;;;;;;2.20;2.00;;;;;;;;;;12653095;28;20403;-76
2022/07/17 02:50:25;;;;;;;2.10;1.90;;;;;;;;;;12650438;28;20492;-80
2022/07/17 02:56:27;;;;;;;2.38;2.17;;;;;;;;;;12632761;28;20031;-76
2022/07/17 03:02:28;;;;;;;2.08;1.98;;;;;;;;;;12649944;28;20384;-76
2022/07/17 03:08:30;;;;;;;2.42;1.95;;;;;;;;;;12648641;28;20384;-75
2022/07/17 03:14:32;;;;;;;2.38;2.10;;;;;;;;;;12633282;28;20468;-75
2022/07/17 03:20:34;;;;;;;1.73;1.63;;;;;;;;;;12651389;28;20036;-79
2022/07/17 03:26:35;;;;;;;2.55;1.65;;;;;;;;;;12630546;28;20044;-75
2022/07/17 03:32:37;;;;;;;2.45;1.70;;;;;;;;;;12649611;28;20036;-75
2022/07/17 03:38:39;;;;;;;2.38;2.00;;;;;;;;;;12629106;28;20035;-76
2022/07/17 03:44:41;;;;;;;2.30;1.40;;;;;;;;;;12647902;28;20036;-79
2022/07/17 03:50:42;;;;;;;1.98;1.77;;;;;;;;;;12647855;28;20036;-80
2022/07/17 03:56:44;;;;;;;3.15;1.85;;;;;;;;;;12645744;28;20040;-80
2022/07/17 04:02:46;;;;;;;1.80;1.50;;;;;;;;;;12627501;28;20498;-80
2022/07/17 04:08:48;;;;;;;1.83;1.65;;;;;;;;;;12629492;28;20048;-80
2022/07/17 04:14:49;;;;;;;2.00;1.90;;;;;;;;;;12642721;28;20024;-76
2022/07/17 04:20:54;;;;;;;2.83;1.50;;;;;;;;;;12626021;28;20046;-76
2022/07/17 04:26:57;;;;;;;1.88;1.77;;;;;;;;;;12644518;28;20039;-80
2022/07/17 04:32:58;;;;;;;2.70;1.70;;;;;;;;;;12624574;28;20036;-76
2022/07/17 04:39:00;;;;;;;2.08;1.88;;;;;;;;;;12625268;28;20410;-80
2022/07/17 04:45:02;;;;;;;2.35;1.60;;;;;;;;;;12642442;28;20036;-80
2022/07/17 04:51:03;;;;;;;1.58;1.48;;;;;;;;;;12628360;28;20032;-80
2022/07/17 04:57:05;;;;;;;2.90;1.90;;;;;;;;;;12636710;28;20515;-76
2022/07/17 05:03:07;;;;;;;1.63;1.52;;;;;;;;;;12637173;28;20024;-75
2022/07/17 05:09:08;;;;;;;1.50;1.40;;;;;;;;;;12653130;28;20044;-76
2022/07/17 05:15:10;;;;;;;1.95;1.85;;;;;;;;;;12618005;28;20518;-77
2022/07/17 05:21:14;;;;;;;1.92;1.83;;;;;;;;;;12654983;28;20039;-80
2022/07/17 05:27:16;;;;;;;2.97;1.77;;;;;;;;;;12633340;28;20048;-76
2022/07/17 05:33:17;;;;;;;2.78;1.95;;;;;;;;;;12632271;28;20035;-79
2022/07/17 05:39:19;;;;;;;1.77;1.67;;;;;;;;;;12634175;28;20051;-76
2022/07/17 05:45:21;;;;;;;1.60;1.50;;;;;;;;;;12634616;28;20044;-79
2022/07/17 05:51:23;;;;;;;1.83;1.45;;;;;;;;;;12633870;28;20028;-76
2022/07/17 05:57:25;;;;;;;1.77;1.67;;;;;;;;;;12630342;28;20036;-80
2022/07/17 06:03:28;;;;;;;2.17;2.00;;;;;;;;;;12654625;28;20036;-80
2022/07/17 06:09:31;;;;;;;2.00;1.80;;;;;;;;;;12631964;28;20048;-76
2022/07/17 06:15:33;;;;;;;1.83;1.73;;;;;;;;;;12634083;28;20047;-76
2022/07/17 06:21:35;;;;;;;2.28;2.00;;;;;;;;;;12647057;28;20381;-80
2022/07/17 06:27:39;;;;;;;1.52;1.42;;;;;;;;;;12647816;28;20036;-79
2022/07/17 06:33:41;;;;;;;1.45;1.35;;;;;;;;;;12653590;28;20288;-79
2022/07/17 06:39:42;;;;;;;2.17;1.52;;;;;;;;;;12635966;28;20056;-80
2022/07/17 06:45:44;;;;;;;1.50;1.27;;;;;;;;;;12628179;28;20055;-79
2022/07/17 06:51:47;;;;;;;2.45;1.55;;;;;;;;;;12632132;28;20032;-79
2022/07/17 06:57:49;;;;;;;1.50;1.40;;;;;;;;;;12657741;28;20392;-80
2022/07/17 07:03:51;;;;;;;1.75;1.40;;;;;;;;;;12628801;28;20047;-80
2022/07/17 07:09:53;;;;;;;1.90;1.00;;;;;;;;;;12647276;28;20397;-80
2022/07/17 07:15:54;;;;;;;2.42;1.30;;;;;;;;;;12625001;28;20047;-76
2022/07/17 07:21:57;;;;;;;1.48;1.23;;;;;;;;;;12644222;28;20395;-79
2022/07/17 07:27:59;;;;;;;1.80;1.38;;;;;;;;;;12627704;28;20044;-80
2022/07/17 07:34:01;;;;;;;1.48;1.38;;;;;;;;;;12625890;28;20032;-77
2022/07/17 07:40:03;;;;;;;1.95;1.52;;;;;;;;;;12647266;28;20079;-80
2022/07/17 07:46:05;;;;;;;2.15;1.23;;;;;;;;;;12643309;28;20039;-80
2022/07/17 07:52:07;;;;;;;1.27;1.15;;;;;;;;;;12643152;28;20039;-79
2022/07/17 07:58:10;;;;;;;1.73;1.50;;;;;;;;;;12629604;28;20036;-76
2022/07/17 08:04:12;;;;;;;1.35;1.10;;;;;;;;;;12624729;28;20384;-76
2022/07/17 08:10:14;;;;;;;1.40;1.10;;;;;;;;;;12642554;28;20052;-78
2022/07/17 08:16:15;;;;;;;1.30;1.10;;;;;;;;;;12624086;28;20387;-76
2022/07/17 08:22:17;;;;;;;2.85;1.23;;;;;;;;;;12642636;28;20396;-81
2022/07/17 08:28:19;;;;;;;1.67;1.45;;;;;;;;;;12627770;28;20036;-77
2022/07/17 08:34:21;;;;;;;1.05;1.02;;;;;;;;;;12652808;28;20036;-79
2022/07/17 08:40:25;;;;;;;3.17;1.50;;;;;;;;;;12636774;28;20082;-76
2022/07/17 08:46:29;;;;;;;3.38;1.30;;;;;;;;;;12639375;28;20050;-80
2022/07/17 08:52:31;;;;;;;2.78;1.63;;;;;;;;;;12655870;28;20040;-80
2022/07/17 08:58:33;;;;;;;2.25;1.30;;;;;;;;;;12651984;28;20039;-80
2022/07/17 09:04:34;;;;;;;2.45;1.00;;;;;;;;;;12653236;28;20032;-79
2022/07/17 09:10:43;;;;;;;1.77;1.10;;;;;;;;;;12636116;28;20047;-76
2022/07/17 09:16:52;;;;;;;1.00;1.00;;;;;;;;;;12616655;28;20044;-75
2022/07/17 09:22:57;;;;;;;1.13;1.02;;;;;;;;;;12655209;28;20047;-75
2022/07/17 09:29:01;;;;;;;1.30;1.20;;;;;;;;;;12634094;28;20040;-79
2022/07/17 09:35:04;;;;;;;3.03;1.13;;;;;;;;;;12634646;28;20040;-75
2022/07/17 09:41:11;;;;;;;1.23;0.82;;;;;;;;;;12650668;28;20067;-76
2022/07/17 09:47:13;;;;;;;1.33;1.23;;;;;;;;;;12649235;28;20043;-80
2022/07/17 09:53:15;;;;;;;1.95;1.00;;;;;;;;;;12633899;28;20035;-76
2022/07/17 09:59:18;;;;;;;1.20;1.10;;;;;;;;;;12653308;28;20036;-76
2022/07/17 10:05:19;;;;;;;1.48;1.38;;;;;;;;;;12619186;28;20035;-76
2022/07/17 10:11:22;;;;;;;1.10;1.00;;;;;;;;;;12635232;28;20463;-81
2022/07/17 10:17:24;;;;;;;1.08;0.98;;;;;;;;;;12657532;28;20043;-80
2022/07/17 10:23:25;;;;;;;0.95;0.95;;;;;;;;;;12634860;28;20032;-77
2022/07/17 10:29:30;;;;;;;1.73;0.95;;;;;;;;;;12651805;28;20036;-79
2022/07/17 10:35:44;;;;;;;0.95;0.93;;;;;;;;;;12631185;28;20032;-76
2022/07/17 10:42:02;;;;;;;1.13;0.60;;;;;;;;;;12628939;28;20054;-79
2022/07/17 10:48:08;;;;;;;2.53;1.00;;;;;;;;;;12628230;28;20051;-76
2022/07/17 10:54:10;;;;;;;1.30;1.20;;;;;;;;;;12630739;28;20035;-80
2022/07/17 11:00:12;;;;;;;1.13;1.05;;;;;;;;;;12648368;28;20507;-77
2022/07/17 11:06:30;;;;;;;1.25;1.00;;;;;;;;;;12629611;28;20040;-79
2022/07/17 11:12:32;;;;;;;1.10;1.00;;;;;;;;;;12629847;28;20036;-76
2022/07/17 11:18:35;;;;;;;1.52;1.08;;;;;;;;;;12644613;28;20047;-80
2022/07/17 11:24:36;;;;;;;1.25;0.88;;;;;;;;;;12645860;28;20024;-76
2022/07/17 11:30:38;;;;;;;0.80;0.80;;;;;;;;;;12628287;28;20047;-76
2022/07/17 11:36:41;;;;;;;1.40;1.00;;;;;;;;;;12627795;28;20039;-79
2022/07/17 11:42:43;;;;;;;1.33;1.13;;;;;;;;;;12650636;28;20063;-76
2022/07/17 11:48:45;;;;;;;1.40;1.10;;;;;;;;;;12643642;28;20052;-77
2022/07/17 11:54:46;;;;;;;0.80;0.77;;;;;;;;;;12643381;28;20028;-79
2022/07/17 12:00:48;;;;;;;3.40;3.10;;;;;;;;;;12626902;28;20047;-77
2022/07/17 12:07:07;;;;;;;2.60;1.20;;;;;;;;;;12627911;28;20060;-77
2022/07/17 12:13:09;;;;;;;1.20;0.90;;;;;;;;;;12645564;28;20024;-80
2022/07/17 12:19:15;;;;;;;0.90;0.90;;;;;;;;;;12629093;28;20039;-80
2022/07/17 12:25:26;;;;;;;1.45;1.10;;;;;;;;;;12616691;28;20051;-76
2022/07/17 12:31:28;;;;;;;1.00;0.90;;;;;;;;;;12627430;28;20040;-77
2022/07/17 12:37:30;;;;;;;0.80;0.80;;;;;;;;;;12646337;28;20039;-78
2022/07/17 12:43:32;;;;;;;1.17;1.02;;;;;;;;;;12643051;28;20495;-76
2022/07/17 12:49:34;;;;;;;3.13;2.45;;;;;;;;;;12646106;28;20503;-80
2022/07/17 12:55:36;;;;;;;4.95;4.47;;;;;;;;;;12624348;28;20495;-80
2022/07/17 13:01:38;;;;;;;2.60;2.03;;;;;;;;;;12643563;28;20043;-76
2022/07/17 13:07:40;;;;;;;3.63;3.13;;;;;;;;;;12623901;28;20040;-76
2022/07/17 13:13:41;;;;;;;3.45;3.10;;;;;;;;;;12643200;28;20039;-80
2022/07/17 13:19:43;;;;;;;1.85;1.70;;;;;;;;;;12653679;28;20066;-80
2022/07/17 13:25:45;;;;;;;1.70;1.60;;;;;;;;;;12632781;28;20051;-76
2022/07/17 13:31:47;;;;;;;1.05;1.05;;;;;;;;;;12633194;28;20036;-77
2022/07/17 13:37:49;;;;;;;2.50;1.50;;;;;;;;;;12654638;28;20059;-76
2022/07/17 13:43:51;;;;;;;3.47;1.25;;;;;;;;;;12650141;28;20062;-76
2022/07/17 13:49:53;;;;;;;2.95;1.23;;;;;;;;;;12616368;28;20047;-79
2022/07/17 13:55:54;;;;;;;1.58;1.48;;;;;;;;;;12654991;28;20032;-76
2022/07/17 14:01:56;;;;;;;2.40;1.38;;;;;;;;;;12651118;28;20035;-80
2022/07/17 14:07:58;;;;;;;1.33;1.23;;;;;;;;;;12634570;28;20290;-80
2022/07/17 14:14:00;;;;;;;1.17;1.02;;;;;;;;;;12650849;28;20040;-79
2022/07/17 14:20:01;;;;;;;1.30;1.30;;;;;;;;;;12630397;28;20043;-79
2022/07/17 14:26:03;;;;;;;1.25;1.13;;;;;;;;;;12633949;28;20419;-80
2022/07/17 14:32:05;;;;;;;1.50;1.10;;;;;;;;;;12629933;28;20028;-75
2022/07/17 14:38:07;;;;;;;1.98;1.42;;;;;;;;;;12628898;28;20047;-76
2022/07/17 14:44:08;;;;;;;1.15;1.05;;;;;;;;;;12613404;28;20055;-75
2022/07/17 14:50:10;;;;;;;1.83;1.30;;;;;;;;;;12655010;28;20028;-80
2022/07/17 14:56:12;;;;;;;1.58;1.48;;;;;;;;;;12649918;28;20055;-78
2022/07/17 15:02:14;;;;;;;1.98;1.55;;;;;;;;;;12646101;28;20028;-77
2022/07/17 15:08:16;;;;;;;1.80;1.10;;;;;;;;;;12627988;28;20040;-81
2022/07/17 15:14:17;;;;;;;2.55;1.75;;;;;;;;;;12647874;28;20039;-80
2022/07/17 15:20:19;;;;;;;1.60;1.50;;;;;;;;;;12628793;28;20031;-77
2022/07/17 15:26:21;;;;;;;1.42;1.33;;;;;;;;;;12644619;28;20047;-80
2022/07/17 15:32:23;;;;;;;1.65;1.55;;;;;;;;;;12628582;28;20028;-77
2022/07/17 15:38:25;;;;;;;1.30;1.20;;;;;;;;;;12649742;28;20062;-76
2022/07/17 15:44:26;;;;;;;1.80;1.70;;;;;;;;;;12645243;28;20039;-76
2022/07/17 15:50:28;;;;;;;1.48;1.38;;;;;;;;;;12625879;28;20044;-80
2022/07/17 15:56:30;;;;;;;1.67;1.58;;;;;;;;;;12608982;28;20028;-77
2022/07/17 16:02:33;;;;;;;1.92;1.83;;;;;;;;;;12626921;28;20344;-77
2022/07/17 16:08:35;;;;;;;1.80;1.70;;;;;;;;;;12643467;28;20039;-76
2022/07/17 16:14:37;;;;;;;2.10;2.00;;;;;;;;;;12626619;28;20043;-80
2022/07/17 16:20:39;;;;;;;2.72;2.53;;;;;;;;;;12613478;28;20039;-79
2022/07/17 16:26:40;;;;;;;2.67;2.10;;;;;;;;;;12648079;28;20040;-76
2022/07/17 16:32:42;;;;;;;2.25;2.05;;;;;;;;;;12625582;28;20463;-80
2022/07/17 16:38:44;;;;;;;2.22;2.13;;;;;;;;;;12649441;28;20043;-80
2022/07/17 16:44:46;;;;;;;2.22;2.03;;;;;;;;;;12613273;28;20510;-81
2022/07/17 16:50:48;;;;;;;2.25;2.00;;;;;;;;;;12651155;28;20043;-76
2022/07/17 16:56:49;;;;;;;1.80;1.70;;;;;;;;;;12641574;28;20028;-81
2022/07/17 17:02:51;;;;;;;1.73;1.63;;;;;;;;;;12633781;28;20028;-81
2022/07/17 17:08:53;;;;;;;1.65;1.55;;;;;;;;;;12652507;28;20048;-77
2022/07/17 17:14:55;;;;;;;2.15;1.90;;;;;;;;;;12654087;28;20035;-78
2022/07/17 17:20:56;;;;;;;1.90;1.75;;;;;;;;;;12652163;28;20046;-81
2022/07/17 17:26:58;;;;;;;2.00;1.60;;;;;;;;;;12653513;28;20480;-77
2022/07/17 17:33:00;;;;;;;1.95;1.85;;;;;;;;;;12634285;28;20028;-77
2022/07/17 17:39:02;;;;;;;1.75;1.58;;;;;;;;;;12653773;28;20039;-81
2022/07/17 17:45:04;;;;;;;1.45;1.35;;;;;;;;;;12651547;28;20032;-80
2022/07/17 17:51:06;;;;;;;1.75;1.40;;;;;;;;;;12649585;28;20047;-76
2022/07/17 17:57:08;;;;;;;1.35;1.25;;;;;;;;;;12649531;28;20032;-80
2022/07/17 18:03:10;;;;;;;1.10;1.00;;;;;;;;;;12648194;28;20058;-76
2022/07/17 18:09:12;;;;;;;1.33;0.95;;;;;;;;;;12651120;28;20047;-77
2022/07/17 18:15:14;;;;;;;2.38;1.08;;;;;;;;;;12648206;28;20035;-76
2022/07/17 18:21:15;;;;;;;1.17;1.08;;;;;;;;;;12649668;28;20047;-80
2022/07/17 18:27:17;;;;;;;1.33;1.23;;;;;;;;;;12651154;28;20059;-80
2022/07/17 18:33:19;;;;;;;1.30;1.20;;;;;;;;;;12629069;28;20050;-81
2022/07/17 18:39:20;;;;;;;1.75;1.10;;;;;;;;;;12647387;28;20118;-75
2022/07/17 18:45:22;;;;;;;1.00;1.00;;;;;;;;;;12646853;28;20032;-76
2022/07/17 18:51:24;;;;;;;1.00;1.00;;;;;;;;;;12628204;28;20055;-77
2022/07/17 18:57:26;;;;;;;2.17;1.30;;;;;;;;;;12646279;28;20031;-76
2022/07/17 19:03:27;;;;;;;2.95;1.00;;;;;;;;;;12655699;28;20407;-80
2022/07/17 19:09:29;;;;;;;2.03;1.45;;;;;;;;;;12651668;28;20112;-75
2022/07/17 19:15:31;;;;;;;1.33;1.23;;;;;;;;;;12645938;28;20028;-80
2022/07/17 19:21:32;;;;;;;0.90;0.90;;;;;;;;;;12645209;28;20032;-75
2022/07/17 19:27:34;;;;;;;3.15;1.33;;;;;;;;;;12630864;28;20514;-76
2022/07/17 19:33:36;;;;;;;1.13;1.10;;;;;;;;;;12644792;28;20032;-79
2022/07/17 19:39:38;;;;;;;0.90;0.90;;;;;;;;;;12644852;28;20419;-76
2022/07/17 19:45:39;;;;;;;1.48;0.80;;;;;;;;;;12625759;28;20057;-75
2022/07/17 19:51:41;;;;;;;1.73;1.40;;;;;;;;;;12626196;28;20514;-77
2022/07/17 19:57:44;;;;;;;1.83;1.52;;;;;;;;;;12643534;28;20035;-76
2022/07/17 20:03:46;;;;;;;1.92;1.40;;;;;;;;;;12642989;28;20032;-80
2022/07/17 20:09:48;;;;;;;2.13;1.83;;;;;;;;;;12627291;28;20052;-76
2022/07/17 20:15:50;;;;;;;1.77;1.67;;;;;;;;;;12626558;28;20070;-80
2022/07/17 20:21:52;;;;;;;2.08;1.88;;;;;;;;;;12624987;28;20395;-80
2022/07/17 20:27:53;;;;;;;6.93;6.28;;;;;;;;;;12642319;28;20094;-79
2022/07/17 20:33:55;;;;;;;4.32;3.92;;;;;;;;;;12625397;28;20028;-80
2022/07/17 20:39:57;;;;;;;5.97;4.72;;;;;;;;;;12644887;28;20423;-80
2022/07/17 20:45:58;;;;;;;4.15;3.75;;;;;;;;;;12642984;28;20039;-78
2022/07/17 20:52:00;;;;;;;3.50;3.20;;;;;;;;;;12643855;28;20365;-79
2022/07/17 20:58:02;;;;;;;3.60;3.10;;;;;;;;;;12630587;28;20395;-80
2022/07/17 21:04:04;;;;;;;3.63;3.30;;;;;;;;;;12646738;28;20028;-80
2022/07/17 21:10:06;;;;;;;3.50;3.20;;;;;;;;;;12607328;28;20070;-77
2022/07/17 21:16:08;;;;;;;2.80;2.60;;;;;;;;;;12641611;28;20051;-76
2022/07/17 21:22:10;;;;;;;3.17;2.88;;;;;;;;;;12645459;28;20134;-76
2022/07/17 21:28:12;;;;;;;3.10;2.80;;;;;;;;;;12640877;28;20040;-80
2022/07/17 21:34:13;;;;;;;2.80;2.45;;;;;;;;;;12643998;28;20036;-77
2022/07/17 21:40:15;;;;;;;3.42;2.45;;;;;;;;;;12653952;28;20052;-76
2022/07/17 21:46:17;;;;;;;2.45;2.25;;;;;;;;;;12650302;28;20035;-80
2022/07/17 21:52:18;;;;;;;2.38;2.15;;;;;;;;;;12652011;28;20032;-80
2022/07/17 21:58:20;;;;;;;2.35;2.15;;;;;;;;;;12631004;28;20063;-80
2022/07/17 22:04:22;;;;;;;2.55;2.30;;;;;;;;;;12634154;28;20036;-77
2022/07/17 22:10:24;;;;;;;1.98;1.88;;;;;;;;;;12649513;28;20051;-78
2022/07/17 22:16:27;;;;;;;2.03;1.83;;;;;;;;;;12650423;28;20035;-80
2022/07/17 22:22:29;;;;;;;2.53;1.77;;;;;;;;;;12651044;28;20040;-77
2022/07/17 22:28:32;;;;;;;2.35;1.75;;;;;;;;;;12647398;28;20032;-80
2022/07/17 22:34:34;;;;;;;2.35;1.90;;;;;;;;;;12629986;28;20040;-80
2022/07/17 22:40:36;;;;;;;3.25;1.90;;;;;;;;;;12650961;28;20400;-77
2022/07/17 22:46:37;;;;;;;1.95;1.85;;;;;;;;;;12647893;28;20059;-76
2022/07/17 22:52:39;;;;;;;2.80;1.70;;;;;;;;;;12645818;28;20492;-76
2022/07/17 22:58:41;;;;;;;2.10;1.90;;;;;;;;;;12644722;28;20083;-80
2022/07/17 23:04:42;;;;;;;2.47;1.77;;;;;;;;;;12645079;28;20043;-78
2022/07/17 23:10:44;;;;;;;2.10;1.67;;;;;;;;;;12645854;28;20055;-80
2022/07/17 23:16:46;;;;;;;2.10;1.73;;;;;;;;;;12648412;28;20024;-80
2022/07/17 23:22:48;;;;;;;1.70;1.60;;;;;;;;;;12630037;28;20488;-76
2022/07/17 23:28:52;;;;;;;2.00;1.35;;;;;;;;;;12647137;28;20399;-76
2022/07/17 23:35:01;;;;;;;2.58;1.42;;;;;;;;;;12646389;28;20055;-81
2022/07/17 23:41:02;;;;;;;1.63;1.52;;;;;;;;;;12626961;28;20063;-78
2022/07/17 23:47:04;;;;;;;2.25;1.60;;;;;;;;;;12626988;28;20040;-80
2022/07/17 23:53:06;;;;;;;2.75;1.70;;;;;;;;;;12648690;28;20017;-76
2022/07/17 23:59:08;;;;;;;2.65;1.30;;;;;;;;;;12643431;28;20036;-76
